Tracy Creek, New York
Current Conditions -  °F | °C
As of 11:20 AM on Friday 21 Nov 2014 (Local Time) from KBGM Reporting Station
Light Snow Light Snow  
Wind Chill: -12°   Ceiling: 1800
Heat Index: -5°   Visibility: 2.5mi
Dew Point: -9°   Wind: 14mph
Humidity: 74%   Direction: 310°NW
Pressure: 30.24"   Gusts: 21mph
Location:  42.0463°N, 76.0314°W
Report Text: KBGM 211620Z 31012G18KT 2 1/2SM -SN BKN018 OVC025 M05/M09 A3024 RMK AO2 SNB00 P0000 T10501089
Loading
Personal Weather Stations






























Interactive Weather Map New forecast layout! Learn more

10-Day Weather Forecast

Advertisements
Track Severe Weather on mobile